Time;durP1;ratioP1;P1;durP2;ratioP2;P2;SDS_P1;SDS_P2;PMS_P1;PMS_P2;Temp;Humidity;BMP_temperature;BMP_pressure;BME280_temperature;BME280_humidity;BME280_pressure;Samples;Min_cycle;Max_cycle;Signal;HPM_P1;HPM_P2
2022/03/08 00:00:56;;;;;;;15.55;9.75;;;;;;;-3.62;70.40;96790.03;5028588;28;21088;-80
2022/03/08 00:03:21;;;;;;;16.33;10.13;;;;;;;-3.72;70.78;96786.16;5031623;28;20120;-80
2022/03/08 00:05:47;;;;;;;15.60;9.60;;;;;;;-3.65;70.98;96790.16;5021128;28;20033;-80
2022/03/08 00:08:14;;;;;;;18.10;10.07;;;;;;;-3.67;70.33;96785.97;5042745;28;20070;-80
2022/03/08 00:10:40;;;;;;;14.27;9.18;;;;;;;-3.67;70.33;96786.78;5022291;28;20037;-80
2022/03/08 00:13:06;;;;;;;19.27;9.50;;;;;;;-3.70;70.39;96779.19;5022986;28;20021;-79
2022/03/08 00:15:31;;;;;;;15.80;9.50;;;;;;;-3.67;70.52;96784.22;5042970;28;21261;-80
2022/03/08 00:17:57;;;;;;;19.97;9.00;;;;;;;-3.72;69.92;96790.44;5046854;28;20033;-80
2022/03/08 00:20:23;;;;;;;19.70;10.10;;;;;;;-3.80;70.56;96785.59;5035063;28;20083;-80
2022/03/08 00:22:50;;;;;;;15.80;9.63;;;;;;;-3.82;71.07;96790.81;5031205;28;20111;-80
2022/03/08 00:25:16;;;;;;;12.57;8.85;;;;;;;-3.88;70.84;96782.50;5030881;28;20025;-80
2022/03/08 00:27:45;;;;;;;15.38;9.45;;;;;;;-3.96;70.98;96789.63;5051185;28;20047;-80
2022/03/08 00:30:14;;;;;;;14.13;8.70;;;;;;;-3.92;70.89;96786.06;5025640;28;20033;-80
2022/03/08 00:32:40;;;;;;;14.70;9.07;;;;;;;-3.92;70.50;96791.22;5027332;28;20466;-80
2022/03/08 00:35:08;;;;;;;15.90;8.77;;;;;;;-3.89;69.87;96793.63;5023136;28;20484;-80
2022/03/08 00:37:34;;;;;;;17.13;10.07;;;;;;;-3.88;69.29;96785.88;5044825;28;20024;-78
2022/03/08 00:40:02;;;;;;;16.83;9.98;;;;;;;-3.84;69.09;96789.19;5026722;28;20229;-79
2022/03/08 00:42:31;;;;;;;15.95;9.32;;;;;;;-3.87;68.77;96784.16;5023524;28;20033;-79
2022/03/08 00:44:56;;;;;;;17.42;9.50;;;;;;;-3.94;69.29;96777.56;5026503;28;20041;-79
2022/03/08 00:47:25;;;;;;;16.38;10.45;;;;;;;-3.93;69.39;96777.50;5033278;28;20037;-80
2022/03/08 00:49:50;;;;;;;18.05;9.55;;;;;;;-3.99;69.67;96777.75;5034532;28;20072;-80
2022/03/08 00:52:17;;;;;;;17.25;9.82;;;;;;;-4.01;70.55;96773.56;5033365;28;20032;-80
2022/03/08 00:54:43;;;;;;;18.63;9.38;;;;;;;-3.96;69.69;96763.94;5036593;28;20064;-80
2022/03/08 00:57:08;;;;;;;19.13;9.70;;;;;;;-4.05;70.58;96762.56;5034513;28;20056;-80
2022/03/08 00:59:34;;;;;;;18.17;10.67;;;;;;;-4.09;71.13;96753.28;5042675;28;20086;-80
2022/03/08 01:02:10;;;;;;;19.95;10.25;;;;;;;-4.14;71.63;96766.31;5033295;28;20483;-80
2022/03/08 01:04:35;;;;;;;16.85;9.98;;;;;;;-4.15;71.67;96764.63;5030877;28;20042;-80
2022/03/08 01:07:01;;;;;;;19.03;11.50;;;;;;;-4.20;72.63;96755.41;5022673;28;20384;-80
2022/03/08 01:09:27;;;;;;;18.70;10.07;;;;;;;-4.29;72.41;96756.63;5039025;28;20044;-80
2022/03/08 01:11:53;;;;;;;16.80;10.37;;;;;;;-4.36;73.52;96760.25;5039289;28;20033;-80
2022/03/08 01:14:24;;;;;;;16.77;9.93;;;;;;;-4.34;72.96;96755.94;5057920;28;20708;-80
2022/03/08 01:16:50;;;;;;;20.25;10.63;;;;;;;-4.21;71.64;96759.72;5039259;28;20057;-79
2022/03/08 01:19:16;;;;;;;17.30;10.03;;;;;;;-4.34;72.91;96751.63;5040678;28;20037;-79
2022/03/08 01:21:42;;;;;;;18.73;11.00;;;;;;;-4.43;73.09;96769.09;5033573;28;20040;-80
2022/03/08 01:24:08;;;;;;;18.42;10.32;;;;;;;-4.48;74.22;96761.56;5032758;28;20037;-79
2022/03/08 01:26:34;;;;;;;15.82;10.32;;;;;;;-4.39;73.82;96761.25;5041985;28;20030;-80
2022/03/08 01:29:00;;;;;;;19.50;9.77;;;;;;;-4.40;73.67;96758.72;5027064;28;20483;-79
2022/03/08 01:31:26;;;;;;;17.42;9.63;;;;;;;-4.40;73.19;96744.13;5035968;28;20029;-80
2022/03/08 01:33:54;;;;;;;18.67;10.00;;;;;;;-4.42;73.17;96750.25;5042881;28;20035;-80
2022/03/08 01:36:21;;;;;;;19.77;9.98;;;;;;;-4.42;72.08;96742.53;5030781;28;20025;-80
2022/03/08 01:38:47;;;;;;;15.95;9.32;;;;;;;-4.48;72.45;96732.50;5024168;28;20037;-80
2022/03/08 01:41:13;;;;;;;17.58;9.82;;;;;;;-4.40;71.80;96728.72;5026283;28;20029;-80
2022/03/08 01:43:39;;;;;;;15.48;9.88;;;;;;;-4.40;71.79;96723.59;5030379;28;20051;-80
2022/03/08 01:46:07;;;;;;;16.13;9.40;;;;;;;-4.53;72.13;96723.22;5043067;28;20032;-80
2022/03/08 01:48:33;;;;;;;17.38;10.15;;;;;;;-4.55;73.02;96724.19;5025663;28;20143;-80
2022/03/08 01:50:58;;;;;;;16.77;10.83;;;;;;;-4.59;73.63;96708.06;5032601;28;20123;-80
2022/03/08 01:53:24;;;;;;;14.80;9.60;;;;;;;-4.61;74.29;96707.25;5036382;28;20033;-80
2022/03/08 01:55:53;;;;;;;17.93;10.50;;;;;;;-4.56;73.68;96702.81;5037042;28;20120;-80
2022/03/08 01:58:19;;;;;;;15.40;10.10;;;;;;;-4.55;73.26;96699.34;5027061;28;20029;-80
2022/03/08 02:00:45;;;;;;;18.03;10.67;;;;;;;-4.59;73.46;96707.22;5017948;28;20044;-80
2022/03/08 02:03:12;;;;;;;16.67;9.43;;;;;;;-4.63;73.42;96700.50;5041597;28;20026;-80
2022/03/08 02:05:37;;;;;;;17.73;10.27;;;;;;;-4.63;74.17;96705.63;5048869;28;20040;-80
2022/03/08 02:08:03;;;;;;;19.00;10.60;;;;;;;-4.63;74.29;96701.34;5036384;28;20513;-79
2022/03/08 02:10:29;;;;;;;15.97;9.73;;;;;;;-4.70;74.67;96702.44;5038607;28;20025;-80
2022/03/08 02:12:55;;;;;;;17.03;10.90;;;;;;;-4.76;74.92;96706.09;5037190;28;20463;-80
2022/03/08 02:15:24;;;;;;;19.20;10.27;;;;;;;-4.74;75.37;96709.41;5027206;28;20658;-80
2022/03/08 02:17:51;;;;;;;18.77;10.30;;;;;;;-4.75;75.58;96699.22;5025550;28;20103;-80
2022/03/08 02:20:18;;;;;;;16.63;10.15;;;;;;;-4.75;75.90;96696.66;5048968;28;20958;-80
2022/03/08 02:22:46;;;;;;;18.48;10.25;;;;;;;-4.78;75.97;96686.50;5040295;28;20112;-80
2022/03/08 02:25:13;;;;;;;18.33;10.35;;;;;;;-4.73;75.43;96692.28;5042380;28;20033;-80
2022/03/08 02:27:51;;;;;;;18.27;9.25;;;;;;;-4.71;75.30;96687.94;5063133;28;20033;-79
2022/03/08 02:30:18;;;;;;;15.82;9.73;;;;;;;-4.71;75.38;96689.69;5051690;28;20040;-79
2022/03/08 02:32:44;;;;;;;18.63;9.45;;;;;;;-4.72;75.92;96696.56;5042168;28;20133;-80
2022/03/08 02:35:13;;;;;;;18.13;10.02;;;;;;;-4.76;75.69;96695.00;5052904;28;20032;-80
2022/03/08 02:37:41;;;;;;;16.55;9.75;;;;;;;-4.76;75.64;96688.13;5021127;28;20107;-79
2022/03/08 02:40:09;;;;;;;15.07;8.77;;;;;;;-4.75;75.79;96687.22;5044580;28;20033;-79
2022/03/08 02:42:35;;;;;;;16.73;10.10;;;;;;;-4.68;75.39;96690.41;5025254;28;20128;-80
2022/03/08 02:45:01;;;;;;;19.85;10.38;;;;;;;-4.69;74.40;96680.19;5025320;28;20120;-80
2022/03/08 02:47:26;;;;;;;18.53;10.23;;;;;;;-4.64;73.90;96679.13;5043586;28;20151;-80
2022/03/08 02:49:52;;;;;;;19.50;9.37;;;;;;;-4.56;73.48;96678.84;5048906;28;20418;-80
2022/03/08 02:52:18;;;;;;;17.17;10.57;;;;;;;-4.47;72.38;96673.38;5044731;28;20041;-80
2022/03/08 02:54:43;;;;;;;18.70;9.90;;;;;;;-4.48;72.33;96679.41;5024171;28;20061;-80
2022/03/08 02:57:19;;;;;;;15.57;9.17;;;;;;;-4.48;72.43;96674.28;5033362;28;20094;-80
2022/03/08 02:59:44;;;;;;;16.52;9.27;;;;;;;-4.57;72.67;96674.63;5053487;28;20037;-80
2022/03/08 03:02:10;;;;;;;15.50;9.17;;;;;;;-4.63;72.71;96680.81;5026609;28;20087;-80
2022/03/08 03:04:36;;;;;;;15.00;8.97;;;;;;;-4.75;73.07;96676.13;5031419;28;20030;-80
2022/03/08 03:07:02;;;;;;;15.87;9.53;;;;;;;-4.78;73.36;96678.81;5023671;28;20037;-80
2022/03/08 03:09:27;;;;;;;15.87;10.50;;;;;;;-4.76;74.02;96677.88;5037537;28;20041;-80
2022/03/08 03:11:53;;;;;;;17.27;9.87;;;;;;;-4.82;74.35;96669.56;5034738;28;20090;-80
2022/03/08 03:14:23;;;;;;;19.23;10.00;;;;;;;-4.76;74.81;96669.34;5050580;28;20040;-79
2022/03/08 03:16:49;;;;;;;14.18;8.82;;;;;;;-4.76;74.28;96671.91;5062923;28;20072;-79
2022/03/08 03:19:24;;;;;;;19.30;9.97;;;;;;;-4.81;74.64;96660.94;5050654;28;20064;-79
2022/03/08 03:21:49;;;;;;;19.38;9.00;;;;;;;-4.78;74.79;96665.97;5029341;28;20093;-80
2022/03/08 03:24:18;;;;;;;18.37;9.60;;;;;;;-4.82;74.90;96667.00;5042317;28;20041;-79
2022/03/08 03:26:44;;;;;;;18.30;10.25;;;;;;;-4.82;75.24;96655.00;5068456;28;20021;-80
2022/03/08 03:29:10;;;;;;;17.97;10.73;;;;;;;-4.88;75.61;96665.47;5026987;28;20037;-80
2022/03/08 03:31:35;;;;;;;17.50;9.90;;;;;;;-4.92;76.14;96663.91;5049261;28;20526;-80
2022/03/08 03:34:11;;;;;;;17.60;9.60;;;;;;;-4.95;75.99;96660.63;5048243;28;20040;-80
2022/03/08 03:36:36;;;;;;;19.45;9.48;;;;;;;-4.92;75.96;96657.94;5027580;28;20036;-80
2022/03/08 03:39:05;;;;;;;17.67;10.83;;;;;;;-4.95;76.37;96670.88;5027316;28;20568;-80
2022/03/08 03:41:31;;;;;;;16.70;9.63;;;;;;;-5.02;76.78;96665.97;5026859;28;20032;-80
2022/03/08 03:43:57;;;;;;;16.73;10.17;;;;;;;-5.11;77.70;96666.28;5052165;28;20395;-79
2022/03/08 03:46:22;;;;;;;17.03;10.03;;;;;;;-5.07;77.64;96667.84;5042737;28;20095;-80
2022/03/08 03:48:48;;;;;;;15.90;9.83;;;;;;;-5.08;77.54;96673.03;5039296;28;20478;-79
2022/03/08 03:51:16;;;;;;;21.30;10.10;;;;;;;-5.12;77.82;96668.91;5023322;28;20041;-79
2022/03/08 03:53:43;;;;;;;15.88;9.73;;;;;;;-5.13;78.16;96664.66;5036625;28;20032;-79
2022/03/08 03:56:09;;;;;;;17.10;10.55;;;;;;;-5.10;78.03;96652.56;5048309;28;20041;-79
2022/03/08 03:58:35;;;;;;;18.33;10.57;;;;;;;-5.10;78.13;96654.28;5031347;28;20083;-80
2022/03/08 04:01:00;;;;;;;17.10;9.43;;;;;;;-5.09;78.28;96661.94;5036585;28;20862;-79
2022/03/08 04:03:26;;;;;;;19.87;10.13;;;;;;;-5.08;78.10;96653.34;5026712;28;20037;-79
2022/03/08 04:05:52;;;;;;;16.90;10.30;;;;;;;-5.10;77.94;96662.81;5034998;28;20124;-79
2022/03/08 04:08:20;;;;;;;18.67;10.10;;;;;;;-5.16;78.60;96662.19;5032938;28;20128;-80
2022/03/08 04:10:50;;;;;;;19.75;11.13;;;;;;;-5.16;78.44;96660.50;5043053;28;20033;-79
2022/03/08 04:13:16;;;;;;;19.38;10.93;;;;;;;-5.14;77.76;96653.56;5050207;28;20479;-79
2022/03/08 04:15:44;;;;;;;16.73;9.82;;;;;;;-5.13;77.85;96659.53;5028178;28;20117;-79
2022/03/08 04:18:09;;;;;;;20.45;9.98;;;;;;;-5.14;77.90;96653.56;5050347;28;20383;-79
2022/03/08 04:20:35;;;;;;;18.23;10.70;;;;;;;-5.10;77.42;96647.44;5039169;28;20092;-79
2022/03/08 04:23:01;;;;;;;16.70;9.80;;;;;;;-5.14;77.50;96658.69;5047929;28;20037;-79
2022/03/08 04:25:27;;;;;;;16.83;9.93;;;;;;;-5.01;76.62;96652.25;5042045;28;20120;-79
2022/03/08 04:27:53;;;;;;;19.92;9.65;;;;;;;-5.03;76.75;96655.75;5042971;28;20056;-79
2022/03/08 04:30:19;;;;;;;18.77;9.73;;;;;;;-5.00;76.78;96650.50;5041509;28;20134;-79
2022/03/08 04:32:45;;;;;;;17.63;9.93;;;;;;;-5.00;76.78;96646.25;5020024;28;20051;-79
2022/03/08 04:35:13;;;;;;;15.50;9.40;;;;;;;-5.03;76.81;96646.34;5042275;28;20025;-79
2022/03/08 04:37:56;;;;;;;16.40;9.85;;;;;;;-5.01;76.61;96647.09;5042647;28;20032;-80
2022/03/08 04:40:22;;;;;;;15.38;9.18;;;;;;;-4.91;76.01;96645.06;5033072;28;20044;-79
2022/03/08 04:42:48;;;;;;;15.73;9.65;;;;;;;-4.89;75.91;96642.44;5034904;28;20040;-80
2022/03/08 04:45:13;;;;;;;17.60;9.63;;;;;;;-4.94;76.23;96646.91;5034761;28;20040;-79
2022/03/08 04:47:40;;;;;;;17.47;10.00;;;;;;;-4.83;75.12;96645.63;5047229;28;20116;-79
2022/03/08 04:50:14;;;;;;;18.15;10.02;;;;;;;-4.87;75.45;96645.78;5027237;28;20038;-79
2022/03/08 04:52:41;;;;;;;20.23;10.43;;;;;;;-4.84;75.38;96643.09;5043712;28;20044;-79
2022/03/08 04:55:07;;;;;;;14.60;8.75;;;;;;;-4.81;75.01;96653.25;5034721;28;20103;-79
2022/03/08 04:57:33;;;;;;;20.02;10.30;;;;;;;-4.83;74.95;96649.91;5043053;28;20392;-80
2022/03/08 04:59:59;;;;;;;16.88;10.70;;;;;;;-4.79;74.51;96654.06;5041663;28;20483;-79
2022/03/08 05:02:27;;;;;;;15.50;8.75;;;;;;;-4.85;75.14;96649.13;5022401;28;20156;-79
2022/03/08 05:04:52;;;;;;;17.43;9.83;;;;;;;-4.80;74.57;96652.34;5025078;28;20147;-80
2022/03/08 05:07:18;;;;;;;18.17;10.37;;;;;;;-4.78;74.44;96648.84;5032140;28;20021;-79
2022/03/08 05:09:44;;;;;;;17.23;9.53;;;;;;;-4.82;74.59;96649.88;5026834;28;20036;-79
2022/03/08 05:12:11;;;;;;;16.27;8.60;;;;;;;-4.84;74.72;96646.50;5027718;28;20033;-79
2022/03/08 05:14:37;;;;;;;19.08;10.48;;;;;;;-4.88;74.88;96646.69;5026077;28;20017;-79
2022/03/08 05:17:03;;;;;;;16.23;9.43;;;;;;;-4.89;75.02;96642.44;5026016;28;20056;-80
2022/03/08 05:19:29;;;;;;;14.00;8.90;;;;;;;-4.90;75.26;96649.28;5051090;28;20502;-80
2022/03/08 05:21:55;;;;;;;17.73;9.83;;;;;;;-4.97;75.94;96645.25;5049961;28;20029;-80
2022/03/08 05:24:20;;;;;;;16.53;10.37;;;;;;;-5.01;75.88;96647.09;5047938;28;20033;-80
2022/03/08 05:26:47;;;;;;;16.60;8.80;;;;;;;-4.95;75.94;96634.97;5022058;28;20384;-80
2022/03/08 05:29:13;;;;;;;15.63;9.55;;;;;;;-4.78;74.47;96633.47;5029084;28;20388;-80
2022/03/08 05:31:39;;;;;;;14.97;8.87;;;;;;;-4.63;73.27;96634.59;5033707;28;20174;-80
2022/03/08 05:34:05;;;;;;;19.50;9.80;;;;;;;-4.61;73.11;96624.31;5041982;28;20399;-80
2022/03/08 05:36:30;;;;;;;15.25;9.38;;;;;;;-4.60;72.65;96631.94;5045668;28;20108;-79
2022/03/08 05:38:56;;;;;;;16.63;9.33;;;;;;;-4.63;73.16;96641.47;5038903;28;20049;-80
2022/03/08 05:41:30;;;;;;;18.33;9.70;;;;;;;-4.63;73.40;96646.59;5041583;28;20028;-80
2022/03/08 05:43:56;;;;;;;14.90;8.65;;;;;;;-4.58;72.85;96648.13;5033423;28;20043;-80
2022/03/08 05:46:22;;;;;;;16.30;9.13;;;;;;;-4.50;72.43;96660.66;5034227;28;20022;-81
2022/03/08 05:48:47;;;;;;;16.83;9.40;;;;;;;-4.55;72.90;96654.88;5037720;28;20451;-80
2022/03/08 05:51:13;;;;;;;20.80;10.23;;;;;;;-4.56;72.43;96666.00;5030359;28;20033;-79
2022/03/08 05:53:39;;;;;;;15.47;8.57;;;;;;;-4.53;72.75;96665.91;5059972;28;20433;-80
2022/03/08 05:56:05;;;;;;;16.63;9.97;;;;;;;-4.48;72.20;96665.75;5046531;28;20034;-80
2022/03/08 05:58:30;;;;;;;14.70;8.47;;;;;;;-4.45;72.48;96673.34;5029635;28;20037;-80
2022/03/08 06:00:56;;;;;;;14.80;9.70;;;;;;;-4.37;71.52;96676.44;5048373;28;20025;-80
2022/03/08 06:03:22;;;;;;;17.33;10.17;;;;;;;-4.47;72.43;96678.50;5042098;28;20018;-80
2022/03/08 06:05:47;;;;;;;20.17;10.57;;;;;;;-4.24;71.00;96687.09;5046092;28;20044;-80
2022/03/08 06:08:14;;;;;;;19.77;11.93;;;;;;;-4.11;70.76;96683.16;5021759;28;20037;-79
2022/03/08 06:10:40;;;;;;;17.55;10.60;;;;;;;-3.84;69.42;96671.81;5046093;28;20049;-79
2022/03/08 06:13:12;;;;;;;19.30;10.70;;;;;;;-3.72;68.24;96685.91;5053306;28;20458;-80
2022/03/08 06:15:38;;;;;;;19.08;10.65;;;;;;;-3.60;67.37;96684.59;5040179;28;20123;-80
2022/03/08 06:18:07;;;;;;;18.80;10.63;;;;;;;-3.23;66.08;96681.34;5053356;28;20127;-79
2022/03/08 06:20:32;;;;;;;16.27;11.00;;;;;;;-3.25;66.53;96688.28;5053937;28;20112;-79
2022/03/08 06:22:58;;;;;;;16.70;9.97;;;;;;;-3.02;65.15;96674.44;5045434;28;20167;-79
2022/03/08 06:25:25;;;;;;;16.33;10.47;;;;;;;-2.90;65.51;96676.50;5036614;28;20108;-80
2022/03/08 06:27:50;;;;;;;15.35;10.13;;;;;;;-2.77;63.67;96669.06;5036583;28;20033;-80
2022/03/08 06:30:16;;;;;;;18.20;10.53;;;;;;;-2.65;63.25;96665.97;5035198;28;20037;-80
2022/03/08 06:32:44;;;;;;;18.27;9.73;;;;;;;-2.75;63.17;96657.00;5035402;28;20060;-80
2022/03/08 06:35:10;;;;;;;14.75;8.60;;;;;;;-2.52;62.85;96650.78;5039045;28;20072;-79
2022/03/08 06:37:36;;;;;;;15.45;10.32;;;;;;;-2.50;62.00;96651.56;5045178;28;20025;-80
2022/03/08 06:40:36;;;;;;;16.20;9.63;;;;;;;-2.28;61.28;96654.00;5033080;28;20067;-80
2022/03/08 06:43:02;;;;;;;16.20;9.55;;;;;;;-1.49;59.72;96639.06;5037563;28;20144;-80
2022/03/08 06:45:28;;;;;;;16.90;9.57;;;;;;;-1.38;59.08;96642.84;5035986;28;20491;-80
2022/03/08 06:47:53;;;;;;;17.17;9.80;;;;;;;-1.11;58.40;96638.88;5054611;28;20040;-81
2022/03/08 06:50:19;;;;;;;19.07;10.03;;;;;;;-0.63;57.37;96637.28;5045131;28;20068;-81
2022/03/08 06:52:52;;;;;;;13.30;9.00;;;;;;;-0.90;56.56;96642.13;5036503;28;20128;-80
2022/03/08 06:55:18;;;;;;;18.50;11.48;;;;;;;-0.48;56.25;96643.38;5032104;28;20029;-80
2022/03/08 06:57:43;;;;;;;18.10;10.43;;;;;;;-0.13;55.35;96636.31;5039797;28;20117;-81
2022/03/08 07:00:11;;;;;;;14.73;8.87;;;;;;;-0.36;55.78;96642.72;5046653;28;20033;-81
2022/03/08 07:02:37;;;;;;;19.03;9.53;;;;;;;-0.02;55.44;96643.47;5045923;28;20494;-80
2022/03/08 07:05:04;;;;;;;16.30;9.50;;;;;;;0.19;54.87;96639.69;5050596;28;20542;-81
2022/03/08 07:07:30;;;;;;;12.63;8.60;;;;;;;0.16;54.37;96642.44;5029199;28;20444;-81
2022/03/08 07:09:56;;;;;;;12.40;8.07;;;;;;;0.64;53.92;96645.78;5038927;28;20452;-80
2022/03/08 07:12:38;;;;;;;13.80;8.90;;;;;;;0.68;52.99;96641.25;5050503;28;20491;-80
2022/03/08 07:15:04;;;;;;;12.57;8.17;;;;;;;1.05;52.48;96639.94;5023948;28;20402;-80
2022/03/08 07:17:30;;;;;;;14.13;8.10;;;;;;;0.80;52.08;96644.88;5052325;28;21150;-81
2022/03/08 07:19:56;;;;;;;14.67;8.07;;;;;;;0.72;52.12;96650.50;5036139;28;20459;-79
2022/03/08 07:22:32;;;;;;;13.27;8.43;;;;;;;1.24;52.14;96642.28;5032562;28;20087;-80
2022/03/08 07:24:59;;;;;;;14.27;8.73;;;;;;;0.82;51.57;96654.22;5020599;28;20040;-80
2022/03/08 07:27:25;;;;;;;14.07;8.63;;;;;;;1.10;50.76;96648.25;5045103;28;20455;-80
2022/03/08 07:29:50;;;;;;;11.73;7.53;;;;;;;1.18;51.03;96646.06;5035819;28;20572;-80
2022/03/08 07:32:16;;;;;;;16.27;9.87;;;;;;;1.67;49.61;96642.22;5028372;28;20484;-80
2022/03/08 07:34:51;;;;;;;15.87;9.20;;;;;;;1.83;49.18;96636.94;5021325;28;20021;-81
2022/03/08 07:37:18;;;;;;;13.33;8.13;;;;;;;1.80;48.75;96637.97;5033856;28;20562;-80
2022/03/08 07:39:53;;;;;;;12.67;8.30;;;;;;;2.11;48.64;96639.47;5037711;28;20475;-80
2022/03/08 07:42:39;;;;;;;12.80;8.20;;;;;;;2.65;46.65;96641.22;5048536;28;20451;-80
2022/03/08 07:51:54;;;;;;;14.03;7.60;;;;;;;2.50;48.38;96650.00;5046967;28;19916;-80
2022/03/08 07:58:21;;;;;;;12.77;7.23;;;;;;;3.51;46.10;96651.03;5033414;28;20432;-80
2022/03/08 08:00:47;;;;;;;14.23;8.30;;;;;;;3.51;46.03;96654.44;5037836;28;20837;-81
2022/03/08 08:03:19;;;;;;;12.57;7.87;;;;;;;3.50;45.83;96644.16;5034673;28;20467;-81
2022/03/08 08:05:47;;;;;;;15.03;7.23;;;;;;;3.82;44.70;96649.72;5044822;28;20407;-79
2022/03/08 08:08:13;;;;;;;11.47;7.53;;;;;;;2.94;46.99;96651.44;5041324;28;20794;-80
2022/03/08 08:10:53;;;;;;;11.33;7.27;;;;;;;4.06;45.27;96648.94;5021964;28;20456;-81
2022/03/08 08:13:19;;;;;;;10.83;6.90;;;;;;;3.25;45.85;96645.00;5049812;28;20091;-79
2022/03/08 08:15:45;;;;;;;9.73;6.63;;;;;;;3.73;45.50;96640.81;5041614;28;20452;-80
2022/03/08 08:18:10;;;;;;;12.20;6.47;;;;;;;3.74;45.27;96654.63;5045519;28;20077;-80
2022/03/08 08:20:36;;;;;;;10.67;6.33;;;;;;;4.25;44.36;96652.72;5044810;28;20041;-81
2022/03/08 08:23:02;;;;;;;10.07;6.80;;;;;;;4.16;44.07;96652.56;5028896;28;20025;-81
2022/03/08 08:25:28;;;;;;;9.93;6.20;;;;;;;4.66;43.13;96650.66;5043709;28;20071;-80
2022/03/08 08:27:54;;;;;;;10.77;5.90;;;;;;;4.49;42.75;96644.94;5036548;28;20486;-81
2022/03/08 08:30:20;;;;;;;10.40;6.60;;;;;;;5.51;41.89;96642.56;5035784;28;20033;-81
2022/03/08 08:32:46;;;;;;;10.70;6.17;;;;;;;5.19;41.48;96638.84;5026281;28;20116;-80
2022/03/08 08:35:12;;;;;;;10.17;6.40;;;;;;;4.97;42.36;96636.22;5049268;28;20081;-80
2022/03/08 08:37:38;;;;;;;10.60;6.47;;;;;;;5.40;41.00;96633.78;5038897;28;20151;-80
2022/03/08 08:40:09;;;;;;;9.37;5.90;;;;;;;5.28;41.09;96633.91;5050980;28;20464;-80
2022/03/08 08:42:35;;;;;;;11.07;6.70;;;;;;;5.39;41.17;96634.72;5021898;28;20386;-80
2022/03/08 08:45:01;;;;;;;10.83;7.27;;;;;;;5.86;40.46;96632.81;5025964;28;20033;-81
2022/03/08 08:47:27;;;;;;;9.40;5.20;;;;;;;6.12;40.45;96636.03;5025105;28;20041;-81
2022/03/08 08:49:52;;;;;;;8.50;4.67;;;;;;;6.09;38.64;96638.88;5022190;28;20568;-80
2022/03/08 08:52:19;;;;;;;12.10;5.63;;;;;;;5.78;39.10;96640.44;5025836;28;20499;-81
2022/03/08 08:54:47;;;;;;;11.17;5.03;;;;;;;6.02;38.04;96650.75;5024948;28;20044;-80
2022/03/08 08:57:13;;;;;;;9.27;5.03;;;;;;;6.14;38.36;96647.19;5040750;28;20025;-80
2022/03/08 08:59:39;;;;;;;7.77;4.30;;;;;;;5.05;39.00;96657.31;5015317;28;20048;-80
2022/03/08 09:02:05;;;;;;;9.80;4.17;;;;;;;4.96;38.95;96642.34;5023251;28;20029;-80
2022/03/08 09:04:30;;;;;;;7.93;4.37;;;;;;;5.94;37.66;96645.31;5028543;28;20032;-80
2022/03/08 09:06:57;;;;;;;7.40;4.10;;;;;;;5.88;37.49;96646.59;5029299;28;20041;-80
2022/03/08 09:09:28;;;;;;;6.90;3.43;;;;;;;4.83;38.54;96657.22;5033320;28;20029;-80
2022/03/08 09:11:54;;;;;;;7.37;4.00;;;;;;;5.10;38.50;96654.38;5026006;28;20455;-80
2022/03/08 09:14:19;;;;;;;7.90;4.20;;;;;;;5.25;37.90;96647.16;5032848;28;20464;-80
2022/03/08 09:16:45;;;;;;;7.87;3.60;;;;;;;5.93;37.16;96640.22;5031090;28;20045;-81
2022/03/08 09:19:11;;;;;;;8.37;3.13;;;;;;;5.45;37.92;96641.25;5017744;28;20044;-80
2022/03/08 09:21:39;;;;;;;7.93;3.63;;;;;;;5.62;37.31;96639.97;5042805;28;20033;-81
2022/03/08 09:24:05;;;;;;;7.17;3.87;;;;;;;6.90;35.43;96628.84;5024155;28;20478;-80
2022/03/08 09:26:31;;;;;;;7.97;3.80;;;;;;;6.13;36.21;96635.06;5038334;28;20079;-81
2022/03/08 09:29:03;;;;;;;10.93;3.70;;;;;;;6.70;35.71;96627.06;5029216;28;20044;-81
2022/03/08 09:31:29;;;;;;;7.60;4.10;;;;;;;6.30;36.27;96632.91;5047219;28;20028;-81
2022/03/08 09:33:55;;;;;;;7.63;4.00;;;;;;;5.90;36.46;96623.81;5025529;28;20447;-80
2022/03/08 09:36:21;;;;;;;6.47;3.87;;;;;;;6.22;36.34;96628.28;5030454;28;20076;-81
2022/03/08 09:38:48;;;;;;;9.33;3.87;;;;;;;5.56;37.38;96625.59;5027724;28;20368;-81
2022/03/08 09:41:14;;;;;;;6.93;4.03;;;;;;;5.49;37.31;96623.59;5044339;28;20017;-82
2022/03/08 09:43:40;;;;;;;8.27;4.03;;;;;;;5.90;36.48;96623.81;5038094;28;20037;-82
2022/03/08 09:46:06;;;;;;;9.10;4.17;;;;;;;7.05;35.10;96616.31;5043214;28;20037;-82
2022/03/08 09:48:33;;;;;;;8.03;4.20;;;;;;;6.61;35.18;96623.44;5042096;28;20039;-82
2022/03/08 09:51:03;;;;;;;8.13;4.17;;;;;;;6.77;35.32;96616.00;5064243;28;20136;-82
2022/03/08 09:53:30;;;;;;;9.30;4.70;;;;;;;6.98;35.68;96605.53;5027922;28;20560;-82
2022/03/08 09:56:01;;;;;;;7.93;4.43;;;;;;;5.97;36.37;96621.59;5040159;28;20499;-82
2022/03/08 09:58:27;;;;;;;8.53;4.20;;;;;;;6.40;36.35;96612.09;5029814;28;20064;-82
2022/03/08 10:01:38;;;;;;;5.80;2.97;;;;;;;6.17;36.15;96622.63;5033976;28;20055;-81
2022/03/08 10:04:07;;;;;;;6.53;3.40;;;;;;;8.50;33.74;96598.50;5041581;28;20630;-81
2022/03/08 10:06:41;;;;;;;8.00;4.40;;;;;;;7.64;35.67;96609.59;5036055;28;20122;-81
2022/03/08 10:10:08;;;;;;;9.43;4.60;;;;;;;6.90;34.86;96631.47;5033384;28;20040;-81
2022/03/08 10:21:34;;;;;;;8.00;3.27;;;;;;;7.71;33.27;96616.81;4924708;29;20035;-81
2022/03/08 10:25:34;;;;;;;7.83;3.20;;;;;;;7.24;35.02;96612.97;4896069;29;20107;-81
2022/03/08 10:33:43;;;;;;;6.40;3.07;;;;;;;5.95;35.00;96614.81;4877520;29;20048;-80
2022/03/08 10:41:28;;;;;;;10.50;4.03;;;;;;;5.56;35.22;96616.94;4832689;29;20069;-79
2022/03/08 10:45:18;;;;;;;5.67;2.50;;;;;;;6.42;34.25;96618.03;4837112;29;20041;-80
2022/03/08 10:49:07;;;;;;;6.80;3.10;;;;;;;6.26;35.33;96614.03;4836482;29;20524;-80
2022/03/08 10:53:02;;;;;;;11.37;3.03;;;;;;;6.49;34.63;96591.28;4853686;29;20052;-80
2022/03/08 11:42:18;;;;;;;6.77;2.83;;;;;;;8.43;31.53;96545.00;4926678;29;20541;-81
2022/03/08 11:45:23;;;;;;;8.10;3.60;;;;;;;7.66;32.75;96558.75;4964955;28;20099;-80
2022/03/08 11:49:13;;;;;;;6.70;2.80;;;;;;;7.51;31.21;96554.84;5003420;28;20044;-80
2022/03/08 11:53:13;;;;;;;4.23;2.50;;;;;;;8.22;30.66;96544.28;5007967;28;20173;-80
2022/03/08 11:57:18;;;;;;;6.50;3.30;;;;;;;7.13;32.35;96547.66;5002680;28;20584;-80
2022/03/08 12:04:23;;;;;;;5.43;2.40;;;;;;;7.96;30.30;96542.16;4864810;29;20049;-80
2022/03/08 12:12:17;;;;;;;5.90;2.60;;;;;;;7.36;30.85;96548.31;4884452;29;20124;-79
2022/03/08 12:16:16;;;;;;;;;;;;;;;;;;;;;
2022/03/08 12:19:44;;;;;;;7.83;3.20;;;;;;;7.58;30.33;96535.06;4914751;29;20186;-79
2022/03/08 12:23:18;;;;;;;8.87;3.20;;;;;;;7.72;29.97;96547.75;4890249;29;20253;-79
2022/03/08 12:27:01;;;;;;;5.97;3.53;;;;;;;8.58;29.72;96540.13;4924114;29;20058;-80
2022/03/08 12:30:18;;;;;;;6.90;2.67;;;;;;;8.18;30.30;96542.88;4900634;29;20124;-80
2022/03/08 12:33:37;;;;;;;6.53;3.07;;;;;;;7.48;31.30;96542.06;4853956;29;20420;-79
2022/03/08 12:37:10;;;;;;;6.20;3.43;;;;;;;7.74;30.92;96531.91;4889293;29;20093;-79
2022/03/08 12:40:20;;;;;;;7.83;4.03;;;;;;;8.03;30.89;96531.97;4904096;29;20494;-79
2022/03/08 12:42:49;;;;;;;8.90;5.20;;;;;;;8.94;30.56;96516.75;4961303;28;20043;-79
2022/03/08 12:45:19;;;;;;;8.30;4.40;;;;;;;8.22;31.30;96533.78;4949652;28;20147;-80
2022/03/08 12:47:46;;;;;;;7.23;4.23;;;;;;;8.23;31.13;96523.16;4970533;28;20049;-80
2022/03/08 12:50:17;;;;;;;6.80;4.10;;;;;;;9.03;31.13;96531.66;4983347;28;20106;-80
2022/03/08 12:52:49;;;;;;;8.93;5.27;;;;;;;8.58;31.24;96534.91;5002011;28;20037;-80
2022/03/08 12:55:28;;;;;;;7.90;4.82;;;;;;;8.21;30.90;96532.94;5039684;28;20542;-80
2022/03/08 12:57:59;;;;;;;8.07;5.10;;;;;;;8.63;30.78;96526.63;5020877;28;20128;-80
2022/03/08 13:00:27;;;;;;;7.90;4.60;;;;;;;8.66;30.57;96531.59;5055871;28;20025;-80
2022/03/08 13:02:52;;;;;;;8.33;4.47;;;;;;;8.38;31.08;96538.50;5019342;28;20021;-82
2022/03/08 13:05:34;;;;;;;9.67;5.77;;;;;;;8.35;30.86;96541.34;5011125;28;20107;-80
2022/03/08 13:08:01;;;;;;;8.27;4.87;;;;;;;8.14;31.27;96557.22;5025962;28;20037;-80
2022/03/08 13:10:28;;;;;;;12.77;5.40;;;;;;;7.43;32.10;96541.59;5058687;28;20247;-79
2022/03/08 13:13:03;;;;;;;9.47;5.63;;;;;;;7.91;32.31;96543.53;5042219;28;20171;-79
2022/03/08 13:15:30;;;;;;;9.60;5.17;;;;;;;8.44;32.17;96532.69;5039802;28;20025;-79
2022/03/08 13:17:58;;;;;;;8.77;5.53;;;;;;;8.88;31.29;96531.25;5022167;28;20475;-79